Time;durP1;ratioP1;P1;durP2;ratioP2;P2;SDS_P1;SDS_P2;PMS_P1;PMS_P2;Temp;Humidity;BMP_temperature;BMP_pressure;BME280_temperature;BME280_humidity;BME280_pressure;Samples;Min_cycle;Max_cycle;Signal;HPM_P1;HPM_P2
2021/08/21 00:00:24;;;;;;;;;;;20.90;71.20;;;;;;5015759;28;1313;-64
2021/08/21 00:02:50;;;;;;;;;;;20.90;71.20;;;;;;5016201;28;1318;-64
2021/08/21 00:05:15;;;;;;;;;;;20.90;71.20;;;;;;5014495;28;1336;-66
2021/08/21 00:07:40;;;;;;;;;;;20.90;71.20;;;;;;5014861;28;1388;-64
2021/08/21 00:10:07;;;;;;;;;;;20.90;71.20;;;;;;5037383;22;3753;-75
2021/08/21 00:12:32;;;;;;;;;;;20.90;71.20;;;;;;5041491;28;2544;-74
2021/08/21 00:14:59;;;;;;;;;;;20.90;71.10;;;;;;5047741;28;1361;-74
2021/08/21 00:17:25;;;;;;;;;;;20.90;71.20;;;;;;5061586;28;1477;-74
2021/08/21 00:19:50;;;;;;;;;;;20.90;71.20;;;;;;5050274;28;1284;-74
2021/08/21 00:22:16;;;;;;;;;;;20.90;71.20;;;;;;5034411;28;1228;-74
2021/08/21 00:24:41;;;;;;;;;;;20.90;71.20;;;;;;5054179;28;935;-74
2021/08/21 00:27:07;;;;;;;;;;;20.90;71.20;;;;;;5044548;28;988;-74
2021/08/21 00:29:32;;;;;;;;;;;20.90;71.20;;;;;;5050831;28;1910;-74
2021/08/21 00:31:58;;;;;;;;;;;20.90;71.20;;;;;;5060377;28;1187;-74
2021/08/21 00:34:23;;;;;;;;;;;20.90;71.20;;;;;;5038639;28;1022;-75
2021/08/21 00:36:49;;;;;;;;;;;20.90;71.20;;;;;;5045574;28;1067;-74
2021/08/21 00:39:14;;;;;;;;;;;20.90;71.20;;;;;;5048746;28;1012;-74
2021/08/21 00:41:40;;;;;;;;;;;20.90;71.30;;;;;;5044928;28;1388;-74
2021/08/21 00:44:05;;;;;;;;;;;20.90;71.20;;;;;;5053233;28;948;-74
2021/08/21 00:46:31;;;;;;;;;;;20.90;71.30;;;;;;5053735;28;979;-74
2021/08/21 00:48:56;;;;;;;;;;;20.80;71.20;;;;;;5041021;28;1894;-74
2021/08/21 00:51:22;;;;;;;;;;;20.90;71.30;;;;;;5045039;28;1327;-74
2021/08/21 00:53:47;;;;;;;;;;;20.90;71.30;;;;;;5047518;28;1094;-74
2021/08/21 00:56:13;;;;;;;;;;;20.90;71.30;;;;;;5048880;28;1553;-73
2021/08/21 00:58:38;;;;;;;;;;;20.90;71.20;;;;;;5037386;28;1250;-74
2021/08/21 01:01:03;;;;;;;;;;;20.80;71.20;;;;;;5044247;28;1650;-74
2021/08/21 01:03:29;;;;;;;;;;;20.90;71.30;;;;;;5047091;28;1046;-74
2021/08/21 01:05:54;;;;;;;;;;;20.90;71.30;;;;;;5044832;28;809;-74
2021/08/21 01:08:20;;;;;;;;;;;20.90;71.30;;;;;;5041411;28;1902;-74
2021/08/21 01:10:46;;;;;;;;;;;20.90;71.30;;;;;;5050480;28;1291;-74
2021/08/21 01:13:11;;;;;;;;;;;20.90;71.30;;;;;;5033540;28;1325;-73
2021/08/21 01:15:37;;;;;;;;;;;20.90;71.30;;;;;;5033760;28;1255;-73
2021/08/21 01:18:04;;;;;;;;;;;20.90;71.30;;;;;;5051214;28;1199;-73
2021/08/21 01:20:30;;;;;;;;;;;20.90;71.30;;;;;;5047985;28;1383;-75
2021/08/21 01:22:55;;;;;;;;;;;20.90;71.40;;;;;;5042865;28;1228;-74
2021/08/21 01:25:22;;;;;;;;;;;20.90;71.30;;;;;;5044596;28;1371;-74
2021/08/21 01:27:48;;;;;;;;;;;20.90;71.30;;;;;;5044037;28;1967;-74
2021/08/21 01:30:13;;;;;;;;;;;20.80;71.30;;;;;;5049823;28;1382;-73
2021/08/21 01:32:39;;;;;;;;;;;20.90;71.30;;;;;;5039473;28;1450;-71
2021/08/21 01:35:05;;;;;;;;;;;20.90;71.40;;;;;;5034779;28;1344;-72
2021/08/21 01:37:30;;;;;;;;;;;20.90;71.30;;;;;;5033134;28;1187;-71
2021/08/21 01:39:55;;;;;;;;;;;20.90;71.40;;;;;;5034467;28;1269;-71
2021/08/21 01:42:21;;;;;;;;;;;20.80;71.30;;;;;;5034387;28;1368;-71
2021/08/21 01:44:46;;;;;;;;;;;20.80;71.30;;;;;;5034216;28;1352;-71
2021/08/21 01:47:12;;;;;;;;;;;20.90;71.40;;;;;;5033243;28;1273;-74
2021/08/21 01:49:37;;;;;;;;;;;20.80;71.40;;;;;;5051952;28;1947;-73
2021/08/21 01:52:03;;;;;;;;;;;20.90;71.40;;;;;;5054919;28;1080;-74
2021/08/21 01:54:29;;;;;;;;;;;20.80;71.40;;;;;;5030676;28;805;-74
2021/08/21 01:56:55;;;;;;;;;;;20.90;71.40;;;;;;5047272;28;1178;-74
2021/08/21 01:59:24;;;;;;;;;;;20.80;71.40;;;;;;5026021;28;1470;-73
2021/08/21 02:01:49;;;;;;;;;;;20.80;71.40;;;;;;5052807;28;1337;-74
2021/08/21 02:04:15;;;;;;;;;;;20.90;71.40;;;;;;5044480;28;986;-74
2021/08/21 02:06:40;;;;;;;;;;;20.90;71.40;;;;;;5046384;28;1414;-72
2021/08/21 02:09:06;;;;;;;;;;;20.90;71.50;;;;;;5043819;28;1963;-73
2021/08/21 02:11:31;;;;;;;;;;;20.90;71.50;;;;;;5037228;28;1345;-73
2021/08/21 02:13:56;;;;;;;;;;;20.80;71.40;;;;;;5033931;28;1327;-73
2021/08/21 02:16:23;;;;;;;;;;;20.90;71.50;;;;;;5036309;28;1688;-74
2021/08/21 02:18:48;;;;;;;;;;;20.90;71.50;;;;;;5042839;28;1675;-73
2021/08/21 02:21:16;;;;;;;;;;;20.90;71.50;;;;;;5035031;28;1290;-73
2021/08/21 02:23:42;;;;;;;;;;;20.90;71.50;;;;;;5053617;28;1114;-73
2021/08/21 02:26:07;;;;;;;;;;;20.90;71.50;;;;;;5038724;28;1721;-73
2021/08/21 02:28:32;;;;;;;;;;;20.90;71.50;;;;;;5053423;28;1907;-73
2021/08/21 02:30:58;;;;;;;;;;;20.80;71.40;;;;;;5038809;28;1311;-73
2021/08/21 02:33:23;;;;;;;;;;;20.80;71.40;;;;;;5043733;28;844;-72
2021/08/21 02:35:49;;;;;;;;;;;20.80;71.50;;;;;;5049310;28;1294;-72
2021/08/21 02:38:14;;;;;;;;;;;20.90;71.50;;;;;;5053256;28;1356;-72
2021/08/21 02:40:39;;;;;;;;;;;20.90;71.50;;;;;;5051873;28;1419;-72
2021/08/21 02:43:05;;;;;;;;;;;20.90;71.60;;;;;;5052384;28;1356;-73
2021/08/21 02:45:30;;;;;;;;;;;20.80;71.40;;;;;;5052373;28;1647;-72
2021/08/21 02:47:56;;;;;;;;;;;20.80;71.50;;;;;;5052990;28;1963;-72
2021/08/21 02:50:21;;;;;;;;;;;20.90;71.50;;;;;;5053739;28;1465;-72
2021/08/21 02:52:49;;;;;;;;;;;20.80;71.50;;;;;;5052234;28;1408;-72
2021/08/21 02:55:14;;;;;;;;;;;20.80;71.50;;;;;;5050557;28;1672;-72
2021/08/21 02:57:39;;;;;;;;;;;20.80;71.50;;;;;;5040570;28;1562;-73
2021/08/21 03:00:05;;;;;;;;;;;20.80;71.40;;;;;;5052996;28;1417;-72
2021/08/21 03:02:31;;;;;;;;;;;20.80;71.50;;;;;;5043420;28;1035;-73
2021/08/21 03:04:56;;;;;;;;;;;20.90;71.50;;;;;;5048065;28;1182;-72
2021/08/21 03:07:21;;;;;;;;;;;20.80;71.50;;;;;;5052864;28;1157;-72
2021/08/21 03:09:47;;;;;;;;;;;20.80;71.40;;;;;;5051450;28;1902;-72
2021/08/21 03:12:12;;;;;;;;;;;20.90;71.50;;;;;;5052809;28;1420;-73
2021/08/21 03:14:38;;;;;;;;;;;20.90;71.50;;;;;;5052603;28;1244;-72
2021/08/21 03:17:03;;;;;;;;;;;20.80;71.50;;;;;;5052878;28;1698;-73
2021/08/21 03:19:28;;;;;;;;;;;20.80;71.50;;;;;;5052116;28;1400;-72
2021/08/21 03:21:54;;;;;;;;;;;20.80;71.40;;;;;;5051420;28;1397;-72
2021/08/21 03:24:21;;;;;;;;;;;20.80;71.50;;;;;;5052427;28;1505;-73
2021/08/21 03:26:46;;;;;;;;;;;20.90;71.50;;;;;;5052569;28;1358;-73
2021/08/21 03:29:11;;;;;;;;;;;20.80;71.50;;;;;;5037816;28;1899;-73
2021/08/21 03:31:37;;;;;;;;;;;20.80;71.40;;;;;;5031629;28;1700;-74
2021/08/21 03:34:02;;;;;;;;;;;20.80;71.50;;;;;;5045845;28;1174;-74
2021/08/21 03:36:29;;;;;;;;;;;20.80;71.50;;;;;;5032825;28;1150;-72
2021/08/21 03:38:54;;;;;;;;;;;20.80;71.40;;;;;;5028383;28;1172;-73
2021/08/21 03:41:19;;;;;;;;;;;20.80;71.40;;;;;;5037747;28;1224;-73
2021/08/21 03:43:45;;;;;;;;;;;20.80;71.40;;;;;;5038443;28;991;-73
2021/08/21 03:46:10;;;;;;;;;;;20.80;71.40;;;;;;5044551;28;1521;-73
2021/08/21 03:48:36;;;;;;;;;;;20.90;71.40;;;;;;5044427;28;1886;-74
2021/08/21 03:51:01;;;;;;;;;;;20.80;71.40;;;;;;5045260;28;1227;-74
2021/08/21 03:53:27;;;;;;;;;;;20.80;71.40;;;;;;5031955;28;976;-74
2021/08/21 03:55:52;;;;;;;;;;;20.80;71.30;;;;;;5045607;28;903;-73
2021/08/21 03:58:17;;;;;;;;;;;20.80;71.30;;;;;;5044812;28;967;-74
2021/08/21 04:00:43;;;;;;;;;;;20.80;71.30;;;;;;5039812;28;1204;-74
2021/08/21 04:03:08;;;;;;;;;;;20.80;71.20;;;;;;5038722;28;852;-74
2021/08/21 04:05:34;;;;;;;;;;;20.80;71.20;;;;;;5039465;28;872;-73
2021/08/21 04:07:59;;;;;;;;;;;20.80;71.20;;;;;;5037876;28;1953;-73
2021/08/21 04:10:25;;;;;;;;;;;20.80;71.20;;;;;;5039149;28;1291;-73
2021/08/21 04:12:50;;;;;;;;;;;20.80;71.20;;;;;;5039123;28;808;-74
2021/08/21 04:15:16;;;;;;;;;;;20.80;71.20;;;;;;5045628;28;1240;-74
2021/08/21 04:17:41;;;;;;;;;;;20.80;71.20;;;;;;5045615;28;1152;-72
2021/08/21 04:20:07;;;;;;;;;;;20.80;71.10;;;;;;5039094;28;1433;-74
2021/08/21 04:22:32;;;;;;;;;;;20.80;71.10;;;;;;5039834;28;846;-73
2021/08/21 04:24:58;;;;;;;;;;;20.80;71.10;;;;;;5030835;28;1099;-73
2021/08/21 04:27:23;;;;;;;;;;;20.80;71.00;;;;;;5032374;28;1614;-74
2021/08/21 04:29:49;;;;;;;;;;;20.80;71.00;;;;;;5044850;28;1973;-72
2021/08/21 04:32:14;;;;;;;;;;;20.80;71.00;;;;;;5036023;28;1660;-72
2021/08/21 04:34:39;;;;;;;;;;;20.80;71.00;;;;;;5035763;28;1446;-72
2021/08/21 04:37:05;;;;;;;;;;;20.80;71.00;;;;;;5034484;28;1385;-72
2021/08/21 04:39:30;;;;;;;;;;;20.80;71.00;;;;;;5035829;28;1566;-72
2021/08/21 04:41:56;;;;;;;;;;;20.80;70.90;;;;;;5035473;28;1657;-72
2021/08/21 04:44:21;;;;;;;;;;;20.80;70.90;;;;;;5048791;28;1499;-72
2021/08/21 04:46:47;;;;;;;;;;;20.80;70.90;;;;;;5030003;28;1163;-72
2021/08/21 04:49:12;;;;;;;;;;;20.80;70.90;;;;;;5042683;28;1898;-71
2021/08/21 04:51:38;;;;;;;;;;;20.80;70.90;;;;;;5055473;28;1440;-72
2021/08/21 04:54:03;;;;;;;;;;;20.80;70.90;;;;;;5037064;28;1351;-71
2021/08/21 04:56:28;;;;;;;;;;;20.80;70.90;;;;;;5041545;28;1474;-71
2021/08/21 04:58:54;;;;;;;;;;;20.80;70.90;;;;;;5049057;28;1075;-71
2021/08/21 05:01:20;;;;;;;;;;;20.80;70.90;;;;;;5046544;28;1594;-71
2021/08/21 05:03:46;;;;;;;;;;;20.80;70.90;;;;;;5049235;28;876;-72
2021/08/21 05:06:11;;;;;;;;;;;20.80;70.90;;;;;;5047628;28;1026;-72
2021/08/21 05:08:37;;;;;;;;;;;20.80;70.90;;;;;;5041694;28;1902;-73
2021/08/21 05:11:02;;;;;;;;;;;20.80;70.90;;;;;;5042140;28;1197;-73
2021/08/21 05:13:28;;;;;;;;;;;20.80;70.80;;;;;;5033070;28;1170;-74
2021/08/21 05:15:53;;;;;;;;;;;20.80;71.10;;;;;;5061094;28;1160;-71
2021/08/21 05:18:26;;;;;;;;;;;20.80;71.50;;;;;;5035851;28;1409;-71
2021/08/21 05:20:53;;;;;;;;;;;20.80;71.60;;;;;;5034860;28;1280;-72
2021/08/21 05:23:18;;;;;;;;;;;20.80;71.50;;;;;;5025737;28;2021;-73
2021/08/21 05:25:47;;;;;;;;;;;20.90;71.50;;;;;;5045000;28;1431;-72
2021/08/21 05:28:14;;;;;;;;;;;20.90;71.50;;;;;;5050654;28;1965;-73
2021/08/21 05:30:39;;;;;;;;;;;20.90;71.50;;;;;;5036540;28;1646;-73
2021/08/21 05:33:09;;;;;;;;;;;20.90;71.50;;;;;;5039646;28;1211;-73
2021/08/21 05:35:34;;;;;;;;;;;20.90;71.50;;;;;;5040126;28;1360;-73
2021/08/21 05:38:00;;;;;;;;;;;20.90;71.50;;;;;;5054163;28;1434;-73
2021/08/21 05:40:25;;;;;;;;;;;20.90;71.40;;;;;;5053026;28;1586;-72
2021/08/21 05:42:50;;;;;;;;;;;20.90;71.40;;;;;;5053163;28;1713;-73
2021/08/21 05:45:16;;;;;;;;;;;20.90;71.50;;;;;;5032621;28;1373;-73
2021/08/21 05:47:41;;;;;;;;;;;20.90;71.50;;;;;;5053513;28;1419;-72
2021/08/21 05:50:07;;;;;;;;;;;20.90;71.40;;;;;;5053836;28;1902;-72
2021/08/21 05:52:32;;;;;;;;;;;20.90;71.50;;;;;;5053752;28;1445;-73
2021/08/21 05:54:58;;;;;;;;;;;20.90;71.40;;;;;;5052647;28;1385;-72
2021/08/21 05:57:23;;;;;;;;;;;20.90;71.40;;;;;;5048119;28;1428;-72
2021/08/21 05:59:49;;;;;;;;;;;20.90;71.40;;;;;;5047368;28;1659;-73
2021/08/21 06:02:14;;;;;;;;;;;20.90;71.50;;;;;;5046496;28;2300;-73
2021/08/21 06:04:40;;;;;;;;;;;20.90;71.50;;;;;;5033419;28;1814;-72
2021/08/21 06:07:05;;;;;;;;;;;20.90;71.50;;;;;;5053599;28;1232;-74
2021/08/21 06:09:30;;;;;;;;;;;20.90;71.50;;;;;;5053147;28;1890;-72
2021/08/21 06:11:56;;;;;;;;;;;20.90;71.50;;;;;;5043349;22;2078;-66
2021/08/21 06:14:21;;;;;;;;;;;20.90;71.50;;;;;;5013860;28;1410;-65
2021/08/21 06:16:47;;;;;;;;;;;20.90;71.50;;;;;;5014010;28;1441;-65
2021/08/21 06:19:12;;;;;;;;;;;20.90;71.50;;;;;;5013922;28;1289;-65
2021/08/21 06:21:38;;;;;;;;;;;20.90;71.50;;;;;;5012354;28;1371;-65
2021/08/21 06:24:03;;;;;;;;;;;20.90;71.50;;;;;;5012757;28;1624;-65
2021/08/21 06:26:29;;;;;;;;;;;20.90;71.60;;;;;;5009146;28;1574;-66
2021/08/21 06:28:54;;;;;;;;;;;20.90;71.60;;;;;;4993672;28;1911;-65
2021/08/21 06:31:20;;;;;;;;;;;20.90;71.70;;;;;;4992615;28;1641;-65
2021/08/21 06:33:45;;;;;;;;;;;20.90;71.70;;;;;;4993618;28;1681;-65
2021/08/21 06:36:10;;;;;;;;;;;20.90;71.80;;;;;;4993811;28;1426;-65
2021/08/21 06:38:36;;;;;;;;;;;20.90;71.80;;;;;;4992189;28;1678;-65
2021/08/21 06:41:01;;;;;;;;;;;20.90;71.80;;;;;;4992947;28;1283;-65
2021/08/21 06:43:27;;;;;;;;;;;20.90;71.80;;;;;;4992361;28;1390;-65
2021/08/21 06:45:52;;;;;;;;;;;20.90;71.80;;;;;;4993410;28;1555;-65
2021/08/21 06:48:18;;;;;;;;;;;20.90;71.80;;;;;;4993150;28;1953;-65
2021/08/21 06:50:44;;;;;;;;;;;20.90;71.80;;;;;;4993306;28;1429;-65
2021/08/21 06:53:09;;;;;;;;;;;20.90;71.90;;;;;;4993137;28;1485;-65
2021/08/21 06:55:35;;;;;;;;;;;20.90;71.90;;;;;;4996909;28;1396;-65
2021/08/21 06:58:00;;;;;;;;;;;20.90;71.90;;;;;;5012767;28;1375;-65
2021/08/21 07:00:25;;;;;;;;;;;20.90;71.90;;;;;;5013257;28;1409;-65
2021/08/21 07:02:51;;;;;;;;;;;20.90;71.90;;;;;;5013355;28;1383;-65
2021/08/21 07:05:16;;;;;;;;;;;20.90;72.00;;;;;;5012769;28;1388;-65
2021/08/21 07:07:42;;;;;;;;;;;20.90;72.00;;;;;;5013394;28;1649;-65
2021/08/21 07:10:07;;;;;;;;;;;20.90;72.00;;;;;;5013210;28;1957;-65
2021/08/21 07:12:33;;;;;;;;;;;20.90;72.00;;;;;;5013047;28;1305;-65
2021/08/21 07:14:58;;;;;;;;;;;20.90;72.10;;;;;;5012918;28;1681;-65
2021/08/21 07:17:24;;;;;;;;;;;20.90;72.00;;;;;;5013042;28;1398;-65
2021/08/21 07:19:49;;;;;;;;;;;20.90;72.00;;;;;;5013071;28;1648;-65
2021/08/21 07:22:15;;;;;;;;;;;20.90;72.10;;;;;;5013005;28;1805;-65
2021/08/21 07:24:40;;;;;;;;;;;20.90;72.10;;;;;;5011614;28;1441;-65
2021/08/21 07:27:06;;;;;;;;;;;20.90;72.10;;;;;;5013114;28;1409;-64
2021/08/21 07:29:31;;;;;;;;;;;20.90;72.20;;;;;;5012768;28;1902;-64
2021/08/21 07:31:56;;;;;;;;;;;20.90;72.00;;;;;;5011680;28;1685;-64
2021/08/21 07:34:22;;;;;;;;;;;20.90;72.10;;;;;;5012574;28;1561;-64
2021/08/21 07:36:47;;;;;;;;;;;20.90;72.10;;;;;;5012929;28;1624;-65
2021/08/21 07:39:13;;;;;;;;;;;20.90;72.10;;;;;;5011581;28;1670;-64
2021/08/21 07:41:38;;;;;;;;;;;20.90;72.10;;;;;;5012862;28;1627;-64
2021/08/21 07:44:04;;;;;;;;;;;20.90;72.10;;;;;;5012396;28;1504;-64
2021/08/21 07:46:29;;;;;;;;;;;20.90;72.10;;;;;;5008599;28;1669;-64
2021/08/21 07:48:55;;;;;;;;;;;20.90;72.10;;;;;;5006289;28;1919;-64
2021/08/21 07:51:20;;;;;;;;;;;20.90;72.00;;;;;;4993205;28;1669;-64
2021/08/21 07:53:46;;;;;;;;;;;20.90;72.10;;;;;;4988927;28;1973;-64
2021/08/21 07:56:11;;;;;;;;;;;20.90;72.10;;;;;;4996971;28;1337;-64
2021/08/21 07:58:40;;;;;;;;;;;20.90;72.00;;;;;;4993075;28;1406;-64
2021/08/21 08:01:05;;;;;;;;;;;20.90;72.10;;;;;;5003051;28;1603;-64
2021/08/21 08:03:30;;;;;;;;;;;20.90;72.10;;;;;;4996474;28;1612;-64
2021/08/21 08:05:56;;;;;;;;;;;20.90;72.10;;;;;;4995426;28;1545;-63
2021/08/21 08:08:23;;;;;;;;;;;20.90;72.10;;;;;;5011935;28;1898;-64
2021/08/21 08:10:49;;;;;;;;;;;20.90;72.10;;;;;;5016332;28;1616;-65
2021/08/21 08:13:14;;;;;;;;;;;20.90;72.10;;;;;;5015195;28;1689;-65
2021/08/21 08:15:39;;;;;;;;;;;20.90;72.20;;;;;;5016372;28;1601;-65
2021/08/21 08:18:05;;;;;;;;;;;20.90;72.10;;;;;;5016416;28;1349;-64
2021/08/21 08:20:30;;;;;;;;;;;20.90;72.10;;;;;;5016263;28;1643;-65
2021/08/21 08:22:56;;;;;;;;;;;20.90;72.20;;;;;;5016325;28;1748;-63
2021/08/21 08:25:21;;;;;;;;;;;20.90;72.20;;;;;;5015912;28;1361;-63
2021/08/21 08:27:47;;;;;;;;;;;20.90;72.20;;;;;;5016311;28;1402;-63
2021/08/21 08:30:13;;;;;;;;;;;20.90;72.20;;;;;;5014978;28;1906;-64
2021/08/21 08:32:38;;;;;;;;;;;20.90;72.20;;;;;;5014598;28;1633;-64
2021/08/21 08:35:04;;;;;;;;;;;20.90;72.20;;;;;;5015668;28;1294;-65
2021/08/21 08:37:29;;;;;;;;;;;20.90;72.20;;;;;;5015912;28;1369;-64
2021/08/21 08:39:54;;;;;;;;;;;20.90;72.20;;;;;;5016134;28;1680;-64
2021/08/21 08:42:20;;;;;;;;;;;20.90;72.20;;;;;;5015878;28;1360;-65
2021/08/21 08:44:46;;;;;;;;;;;20.90;72.20;;;;;;5015589;28;1689;-66
2021/08/21 08:47:15;;;;;;;;;;;20.90;72.20;;;;;;5014469;28;1573;-66
2021/08/21 08:49:41;;;;;;;;;;;20.90;72.30;;;;;;5005956;28;1937;-66
2021/08/21 08:52:07;;;;;;;;;;;20.90;72.30;;;;;;4994836;28;1709;-65
2021/08/21 08:54:32;;;;;;;;;;;20.90;72.30;;;;;;4994669;28;1597;-65
2021/08/21 08:56:58;;;;;;;;;;;20.90;72.30;;;;;;5012235;28;1387;-65
2021/08/21 08:59:23;;;;;;;;;;;20.90;72.30;;;;;;5015576;28;1364;-65
2021/08/21 09:01:48;;;;;;;;;;;20.90;72.50;;;;;;5000178;28;1381;-64
2021/08/21 09:04:23;;;;;;;;;;;20.90;72.40;;;;;;4995401;28;1675;-63
2021/08/21 09:06:49;;;;;;;;;;;20.90;72.40;;;;;;4995830;28;1701;-64
2021/08/21 09:09:15;;;;;;;;;;;21.00;72.50;;;;;;4995732;28;1902;-64
2021/08/21 09:11:44;;;;;;;;;;;21.00;72.40;;;;;;4995556;28;1642;-64
2021/08/21 09:14:28;;;;;;;;;;;21.00;72.50;;;;;;4994130;28;1615;-64
2021/08/21 09:17:12;;;;;;;;;;;21.00;72.40;;;;;;4994597;28;1247;-64
2021/08/21 09:19:37;;;;;;;;;;;21.00;72.40;;;;;;4995640;28;1465;-65
2021/08/21 09:22:03;;;;;;;;;;;21.00;72.30;;;;;;4995668;28;1694;-64
2021/08/21 09:24:30;;;;;;;;;;;21.00;72.20;;;;;;4989929;28;1641;-66
2021/08/21 09:26:56;;;;;;;;;;;21.00;72.20;;;;;;4989070;28;1925;-66
2021/08/21 09:29:27;;;;;;;;;;;21.00;72.10;;;;;;4991004;28;2279;-65
2021/08/21 09:32:03;;;;;;;;;;;21.00;72.10;;;;;;4993828;28;1559;-67
2021/08/21 09:34:28;;;;;;;;;;;21.00;72.10;;;;;;4993616;28;1532;-66
2021/08/21 09:36:54;;;;;;;;;;;21.00;72.10;;;;;;4995217;28;1637;-66
2021/08/21 09:39:19;;;;;;;;;;;21.00;72.10;;;;;;4993908;28;1551;-65
2021/08/21 09:41:58;;;;;;;;;;;21.00;72.10;;;;;;4992309;28;1378;-67
2021/08/21 09:44:24;;;;;;;;;;;21.00;72.10;;;;;;4994205;28;1370;-65
2021/08/21 09:47:07;;;;;;;;;;;21.00;72.10;;;;;;4993982;28;1573;-64
2021/08/21 09:49:32;;;;;;;;;;;21.00;72.10;;;;;;4994944;28;1906;-67
2021/08/21 09:51:59;;;;;;;;;;;20.90;72.00;;;;;;4992366;28;3094;-66
2021/08/21 09:54:25;;;;;;;;;;;20.90;72.10;;;;;;4992753;28;1386;-66
2021/08/21 09:56:54;;;;;;;;;;;20.90;72.00;;;;;;4994848;28;1367;-65
2021/08/21 09:59:31;;;;;;;;;;;21.00;72.10;;;;;;4993828;28;1743;-65
2021/08/21 10:01:57;;;;;;;;;;;21.00;72.10;;;;;;4994729;28;1649;-65
2021/08/21 10:04:22;;;;;;;;;;;21.00;72.10;;;;;;4994073;28;1598;-65
2021/08/21 10:06:48;;;;;;;;;;;21.00;72.10;;;;;;4993599;28;1672;-66
2021/08/21 10:09:13;;;;;;;;;;;21.00;72.10;;;;;;4993297;28;1902;-66
2021/08/21 10:11:39;;;;;;;;;;;21.00;72.10;;;;;;4994559;28;1683;-66
2021/08/21 10:14:05;;;;;;;;;;;21.00;72.20;;;;;;4992913;28;1746;-66
2021/08/21 10:16:31;;;;;;;;;;;21.00;72.20;;;;;;4994396;28;1395;-64
2021/08/21 10:18:56;;;;;;;;;;;21.00;72.20;;;;;;4992939;28;1626;-64
2021/08/21 10:21:22;;;;;;;;;;;21.00;72.20;;;;;;5009259;28;1343;-65
2021/08/21 10:23:47;;;;;;;;;;;21.00;72.30;;;;;;5007274;28;1257;-65
2021/08/21 10:26:21;;;;;;;;;;;20.90;72.20;;;;;;5009987;28;1294;-65
2021/08/21 10:28:46;;;;;;;;;;;21.00;72.30;;;;;;5012078;28;1907;-64
2021/08/21 10:31:30;;;;;;;;;;;21.00;72.30;;;;;;5012678;28;1597;-64
2021/08/21 10:33:56;;;;;;;;;;;21.00;72.30;;;;;;4995918;28;2237;-64
2021/08/21 10:36:57;;;;;;;;;;;21.00;72.40;;;;;;5000768;28;1528;-64
2021/08/21 10:39:22;;;;;;;;;;;21.00;72.40;;;;;;4972321;28;1328;-64
2021/08/21 10:41:48;;;;;;;;;;;21.00;72.40;;;;;;4986010;28;1222;-64
2021/08/21 10:44:32;;;;;;;;;;;21.00;72.40;;;;;;4992436;28;1093;-64
2021/08/21 10:46:58;;;;;;;;;;;20.90;72.30;;;;;;4994075;28;1143;-64
2021/08/21 10:49:38;;;;;;;;;;;21.00;72.40;;;;;;4993932;28;1918;-64
2021/08/21 10:52:08;;;;;;;;;;;20.90;72.30;;;;;;4994054;28;1288;-64
2021/08/21 10:54:33;;;;;;;;;;;20.90;72.30;;;;;;4993371;28;1131;-64
2021/08/21 10:57:19;;;;;;;;;;;21.00;72.30;;;;;;5010434;28;1222;-64
2021/08/21 10:59:45;;;;;;;;;;;21.00;72.30;;;;;;5013332;28;1080;-64
2021/08/21 11:02:25;;;;;;;;;;;20.90;72.30;;;;;;5012108;28;1332;-64
2021/08/21 11:04:51;;;;;;;;;;;21.00;72.40;;;;;;5013099;28;1079;-64
2021/08/21 11:07:32;;;;;;;;;;;21.00;72.40;;;;;;5013363;28;1170;-64
2021/08/21 11:10:13;;;;;;;;;;;21.00;72.40;;;;;;5013083;28;1906;-64
2021/08/21 11:12:38;;;;;;;;;;;20.90;72.30;;;;;;5013293;28;1899;-64
2021/08/21 11:15:14;;;;;;;;;;;21.00;72.40;;;;;;5012950;28;1227;-64
2021/08/21 11:17:39;;;;;;;;;;;21.00;72.50;;;;;;5013230;28;1389;-64
2021/08/21 11:20:22;;;;;;;;;;;21.00;72.50;;;;;;5013129;28;1136;-64
2021/08/21 11:23:08;;;;;;;;;;;21.00;72.50;;;;;;5013320;28;1340;-64
2021/08/21 11:25:34;;;;;;;;;;;21.00;72.50;;;;;;5013354;28;1287;-64
2021/08/21 11:28:03;;;;;;;;;;;21.00;72.40;;;;;;5013438;28;1076;-65
2021/08/21 11:30:28;;;;;;;;;;;21.00;72.50;;;;;;5011761;28;1907;-65
2021/08/21 11:32:57;;;;;;;;;;;21.00;72.50;;;;;;5011774;28;1336;-64
2021/08/21 11:35:25;;;;;;;;;;;21.00;72.50;;;;;;5012787;28;1257;-65
2021/08/21 11:37:54;;;;;;;;;;;21.00;72.40;;;;;;5012984;28;1540;-65
2021/08/21 11:40:20;;;;;;;;;;;21.00;72.50;;;;;;5013990;28;1198;-65
2021/08/21 11:42:46;;;;;;;;;;;21.00;72.40;;;;;;5016906;28;1214;-65
2021/08/21 11:45:14;;;;;;;;;;;21.00;72.50;;;;;;5016543;28;1278;-65
2021/08/21 11:47:39;;;;;;;;;;;21.00;72.40;;;;;;5016969;28;1312;-64
2021/08/21 11:50:37;;;;;;;;;;;21.00;72.50;;;;;;5004014;28;1902;-64
2021/08/21 11:53:03;;;;;;;;;;;21.00;72.50;;;;;;4963981;28;1175;-64
2021/08/21 11:55:28;;;;;;;;;;;21.00;72.40;;;;;;4999002;28;1281;-65
2021/08/21 11:57:55;;;;;;;;;;;21.00;72.40;;;;;;5017193;28;1080;-65
2021/08/21 12:00:22;;;;;;;;;;;21.00;72.40;;;;;;5016675;28;1326;-65
2021/08/21 12:02:51;;;;;;;;;;;21.00;72.40;;;;;;5016753;28;1114;-65
2021/08/21 12:05:24;;;;;;;;;;;21.00;72.40;;;;;;5014886;28;1345;-64
2021/08/21 12:07:50;;;;;;;;;;;21.00;72.40;;;;;;5016921;28;953;-64
2021/08/21 12:10:15;;;;;;;;;;;21.00;72.40;;;;;;5016543;28;1898;-65
2021/08/21 12:12:41;;;;;;;;;;;21.00;72.50;;;;;;5066301;22;3641;-74
2021/08/21 12:15:06;;;;;;;;;;;21.00;72.50;;;;;;5034347;28;1429;-74
2021/08/21 12:17:32;;;;;;;;;;;21.00;72.50;;;;;;5039184;28;1480;-74
2021/08/21 12:19:59;;;;;;;;;;;21.00;72.50;;;;;;5038883;28;1304;-74
2021/08/21 12:22:24;;;;;;;;;;;21.00;72.40;;;;;;5055955;28;1466;-74
2021/08/21 12:24:50;;;;;;;;;;;21.00;72.40;;;;;;5056523;28;1129;-74
2021/08/21 12:27:23;;;;;;;;;;;21.00;72.50;;;;;;5044969;28;1173;-74
2021/08/21 12:29:48;;;;;;;;;;;21.00;72.50;;;;;;5037310;28;1964;-74
2021/08/21 12:32:25;;;;;;;;;;;21.00;72.40;;;;;;5037168;28;1339;-75
2021/08/21 12:35:05;;;;;;;;;;;21.00;72.50;;;;;;5038365;28;1382;-73
2021/08/21 12:37:31;;;;;;;;;;;21.00;72.50;;;;;;5038742;28;1109;-74
2021/08/21 12:40:04;;;;;;;;;;;21.00;72.60;;;;;;5037262;28;1111;-73
2021/08/21 12:42:30;;;;;;;;;;;21.00;72.60;;;;;;5037282;28;1294;-74
2021/08/21 12:44:55;;;;;;;;;;;21.00;72.50;;;;;;5038005;28;1152;-75
2021/08/21 12:47:21;;;;;;;;;;;21.00;72.50;;;;;;5038448;28;1417;-74
2021/08/21 12:49:47;;;;;;;;;;;21.00;72.60;;;;;;5038342;28;1894;-74
2021/08/21 12:52:17;;;;;;;;;;;21.00;72.60;;;;;;5037484;28;1275;-74
2021/08/21 12:54:42;;;;;;;;;;;21.00;72.60;;;;;;5037704;28;1421;-74
2021/08/21 12:57:18;;;;;;;;;;;21.00;72.50;;;;;;5055614;28;1170;-74
2021/08/21 12:59:44;;;;;;;;;;;21.00;72.50;;;;;;5058058;28;1126;-74
2021/08/21 13:02:16;;;;;;;;;;;21.00;72.50;;;;;;5058091;28;1307;-74
2021/08/21 13:04:54;;;;;;;;;;;21.00;72.60;;;;;;5057986;28;1063;-74
2021/08/21 13:07:20;;;;;;;;;;;21.00;72.50;;;;;;5056630;28;1050;-74
2021/08/21 13:09:45;;;;;;;;;;;21.00;72.50;;;;;;5057366;28;1969;-75
2021/08/21 13:12:11;;;;;;;;;;;21.00;72.60;;;;;;5057029;28;1203;-74
2021/08/21 13:14:37;;;;;;;;;;;21.00;72.60;;;;;;5057781;28;1109;-74
2021/08/21 13:17:03;;;;;;;;;;;21.00;72.60;;;;;;5056106;28;1122;-75
2021/08/21 13:19:28;;;;;;;;;;;21.00;72.50;;;;;;5057917;28;1038;-74
2021/08/21 13:21:54;;;;;;;;;;;21.00;72.60;;;;;;5057845;28;1318;-74
2021/08/21 13:24:19;;;;;;;;;;;21.00;72.50;;;;;;5057063;28;1171;-74
2021/08/21 13:26:45;;;;;;;;;;;21.00;72.50;;;;;;5049616;28;1206;-74
2021/08/21 13:29:10;;;;;;;;;;;21.00;72.60;;;;;;5037470;28;2292;-74
2021/08/21 13:31:35;;;;;;;;;;;21.00;72.50;;;;;;5037566;28;1237;-74
2021/08/21 13:34:05;;;;;;;;;;;21.00;72.50;;;;;;5051126;28;1217;-74
2021/08/21 13:36:31;;;;;;;;;;;21.00;72.70;;;;;;5057782;28;986;-74
2021/08/21 13:38:56;;;;;;;;;;;21.00;72.70;;;;;;5057375;28;1181;-74
2021/08/21 13:41:22;;;;;;;;;;;21.00;72.70;;;;;;5050223;28;1245;-74
2021/08/21 13:43:47;;;;;;;;;;;21.00;72.60;;;;;;5037467;28;1115;-74
2021/08/21 13:46:13;;;;;;;;;;;21.00;72.60;;;;;;5037643;28;1115;-74
2021/08/21 13:48:38;;;;;;;;;;;21.00;72.60;;;;;;5036868;28;1945;-75
2021/08/21 13:51:04;;;;;;;;;;;21.00;72.60;;;;;;5036746;28;1343;-74
2021/08/21 13:53:29;;;;;;;;;;;21.00;72.70;;;;;;5037147;28;1056;-74
2021/08/21 13:55:54;;;;;;;;;;;21.00;72.60;;;;;;5048355;28;1125;-75
2021/08/21 13:58:20;;;;;;;;;;;21.00;72.60;;;;;;5056122;28;1149;-74
2021/08/21 14:00:45;;;;;;;;;;;21.00;72.70;;;;;;5036727;28;1114;-74
2021/08/21 14:03:11;;;;;;;;;;;21.00;72.70;;;;;;5035958;28;1225;-74
2021/08/21 14:05:37;;;;;;;;;;;21.00;72.70;;;;;;5044095;28;1310;-75
2021/08/21 14:08:04;;;;;;;;;;;21.00;72.70;;;;;;5056738;28;1102;-74
2021/08/21 14:10:30;;;;;;;;;;;21.00;72.60;;;;;;5052858;28;1950;-73
2021/08/21 14:12:55;;;;;;;;;;;21.00;72.60;;;;;;5035624;28;1655;-74
2021/08/21 14:15:20;;;;;;;;;;;21.00;72.70;;;;;;5043215;28;1076;-74
2021/08/21 14:17:46;;;;;;;;;;;21.00;72.70;;;;;;5056365;28;1524;-73
2021/08/21 14:20:11;;;;;;;;;;;21.00;72.60;;;;;;5055032;28;1027;-74
2021/08/21 14:22:37;;;;;;;;;;;21.00;72.50;;;;;;5043017;28;1329;-73
2021/08/21 14:25:03;;;;;;;;;;;21.00;72.60;;;;;;5036939;28;1421;-73
2021/08/21 14:27:28;;;;;;;;;;;21.00;72.60;;;;;;5035287;28;1429;-73